Time;durP1;ratioP1;P1;durP2;ratioP2;P2;SDS_P1;SDS_P2;PMS_P1;PMS_P2;Temp;Humidity;BMP_temperature;BMP_pressure;BME280_temperature;BME280_humidity;BME280_pressure;Samples;Min_cycle;Max_cycle;Signal;HPM_P1;HPM_P2
2022/08/16 00:01:05;;;;;;;11.73;7.80;;;21.60;29.70;;;22.34;85.91;99051.34;5028020;27;122384;-73
2022/08/16 00:03:34;;;;;;;10.60;7.22;;;21.60;28.80;;;22.34;85.60;99051.34;5042266;27;130154;-73
2022/08/16 00:06:03;;;;;;;13.00;7.93;;;21.60;33.70;;;22.29;86.20;99043.47;5042422;27;129978;-73
2022/08/16 00:08:31;;;;;;;11.10;7.85;;;21.50;35.70;;;22.19;86.50;99045.88;5042452;27;119888;-73
2022/08/16 00:11:00;;;;;;;10.00;7.20;;;21.50;37.50;;;22.20;86.63;99052.19;5042810;27;119653;-73
2022/08/16 00:13:32;;;;;;;11.27;7.45;;;21.50;38.70;;;22.13;87.34;99050.25;5042702;27;130442;-74
2022/08/16 00:16:01;;;;;;;11.00;7.90;;;21.40;38.70;;;22.10;87.45;99051.03;5042689;27;129520;-73
2022/08/16 00:18:29;;;;;;;12.75;8.02;;;21.50;38.60;;;22.03;87.73;99056.56;5019273;27;119133;-72
2022/08/16 00:20:58;;;;;;;12.70;8.13;;;21.50;38.60;;;22.03;87.81;99048.28;5042694;27;120391;-73
2022/08/16 00:23:27;;;;;;;11.15;8.10;;;21.40;38.70;;;22.02;87.68;99055.81;5040995;27;130011;-73
2022/08/16 00:25:56;;;;;;;11.82;8.23;;;21.40;43.00;;;22.00;88.12;99054.63;5023832;27;129954;-73
2022/08/16 00:28:24;;;;;;;11.95;8.27;;;21.30;44.90;;;21.98;88.00;99052.25;5041293;27;119631;-73
2022/08/16 00:30:54;;;;;;;11.18;7.35;;;21.30;48.00;;;21.96;88.22;99049.09;5027792;27;118738;-72
2022/08/16 00:33:23;;;;;;;11.98;7.95;;;21.30;48.30;;;21.90;88.54;99045.97;5027030;27;129762;-73
2022/08/16 00:35:51;;;;;;;12.10;8.20;;;21.30;51.90;;;21.83;89.14;99046.00;5042290;27;129727;-74
2022/08/16 00:38:20;;;;;;;9.40;7.68;;;21.30;52.80;;;21.83;89.13;99046.00;5027303;27;118402;-72
2022/08/16 00:40:52;;;;;;;10.15;7.97;;;21.30;52.50;;;21.80;89.22;99041.28;5042701;27;119103;-73
2022/08/16 00:43:24;;;;;;;10.20;7.55;;;21.30;55.00;;;21.82;89.37;99043.63;5043845;27;129806;-73
2022/08/16 00:46:09;;;;;;;11.05;8.15;;;21.30;57.20;;;21.81;89.28;99048.34;5042042;27;130157;-73
2022/08/16 00:48:39;;;;;;;11.45;7.80;;;21.20;59.00;;;21.80;89.43;99044.03;5007896;27;121098;-73
2022/08/16 00:51:08;;;;;;;10.43;7.65;;;21.10;64.70;;;21.77;89.44;99039.31;5042282;27;122292;-73
2022/08/16 00:53:37;;;;;;;10.40;7.53;;;21.10;63.30;;;21.75;89.42;99044.41;5041848;27;129949;-73
2022/08/16 00:56:11;;;;;;;9.35;7.90;;;21.10;62.00;;;21.74;89.52;99034.56;5010231;27;128853;-74
2022/08/16 00:58:44;;;;;;;9.70;8.23;;;21.20;61.40;;;21.70;89.85;99039.31;5024121;27;119733;-72
2022/08/16 01:01:17;;;;;;;10.68;7.70;;;21.20;60.50;;;21.67;89.90;99037.34;5043751;27;118756;-73
2022/08/16 01:03:51;;;;;;;13.95;8.05;;;21.20;61.60;;;21.66;89.98;99046.81;5009749;27;129286;-73
2022/08/16 01:06:22;;;;;;;10.85;7.50;;;21.20;60.00;;;21.68;89.90;99033.41;5043989;27;129089;-72
2022/08/16 01:08:55;;;;;;;9.82;7.28;;;21.10;60.80;;;21.67;89.84;99038.13;5023722;27;120022;-74
2022/08/16 01:11:26;;;;;;;10.98;8.05;;;21.10;60.60;;;21.70;89.44;99034.56;5040801;27;119456;-73
2022/08/16 01:14:06;;;;;;;11.13;7.80;;;21.10;62.00;;;21.66;89.65;99042.09;5022175;27;130093;-73
2022/08/16 01:16:38;;;;;;;12.43;8.23;;;21.10;63.30;;;21.65;89.66;99034.19;5026587;27;129702;-73
2022/08/16 01:19:18;;;;;;;10.75;8.15;;;21.10;64.20;;;21.64;89.73;99038.91;5023663;27;119739;-72
2022/08/16 01:21:54;;;;;;;10.27;7.20;;;21.10;63.40;;;21.66;89.58;99035.75;5042113;27;119432;-71
2022/08/16 01:24:29;;;;;;;14.90;8.45;;;21.10;63.40;;;21.63;89.51;99031.03;5023420;27;130300;-72
2022/08/16 01:27:04;;;;;;;15.57;7.53;;;21.10;58.80;;;21.66;89.41;99035.75;5044519;27;129754;-72
2022/08/16 01:29:40;;;;;;;8.73;6.90;;;21.10;53.90;;;21.62;89.78;99029.47;5041517;27;119606;-72
2022/08/16 01:32:08;;;;;;;14.63;8.02;;;21.10;54.40;;;21.61;89.90;99028.66;5010232;27;118828;-73
2022/08/16 01:34:37;;;;;;;10.00;7.80;;;21.20;55.60;;;21.64;89.32;99038.13;5026238;27;129332;-73
2022/08/16 01:37:11;;;;;;;14.25;8.23;;;21.10;55.60;;;21.64;89.39;99035.38;5022920;27;129504;-72
2022/08/16 01:39:42;;;;;;;13.93;8.63;;;21.10;56.80;;;21.62;89.54;99029.47;5021992;27;122066;-72
2022/08/16 01:42:12;;;;;;;13.10;7.60;;;21.10;57.30;;;21.64;89.49;99027.09;5026174;27;121409;-70
2022/08/16 01:44:41;;;;;;;9.88;7.82;;;21.10;57.10;;;21.65;89.33;99032.22;5025668;27;128900;-74
2022/08/16 01:47:10;;;;;;;10.73;7.88;;;21.10;55.90;;;21.54;89.78;99028.69;5025719;27;129262;-73
2022/08/16 01:49:43;;;;;;;11.35;7.78;;;21.10;53.60;;;21.60;89.55;99026.31;5023320;27;119610;-72
2022/08/16 01:52:15;;;;;;;12.75;7.82;;;21.10;54.20;;;21.59;89.50;99019.22;5026248;27;118876;-72
2022/08/16 01:55:21;;;;;;;12.23;7.75;;;21.10;56.10;;;21.61;89.65;99022.38;5025912;27;130674;-73
2022/08/16 01:57:49;;;;;;;10.48;7.35;;;21.10;60.90;;;21.63;89.54;99025.50;5026212;27;130228;-71
2022/08/16 02:00:19;;;;;;;11.73;7.72;;;21.00;67.70;;;21.62;89.88;99015.66;5009266;27;119175;-70
2022/08/16 02:02:48;;;;;;;11.20;7.82;;;20.90;74.90;;;21.57;90.41;99016.09;5023022;27;119866;-71
2022/08/16 02:05:16;;;;;;;11.38;8.10;;;20.90;80.20;;;21.52;90.44;99018.06;5024625;27;129673;-72
2022/08/16 02:07:46;;;;;;;12.65;8.32;;;20.80;81.50;;;21.48;90.69;99020.00;5022404;27;129534;-72
2022/08/16 02:10:19;;;;;;;10.65;7.60;;;20.80;81.50;;;21.48;90.80;99011.72;5025973;27;119877;-73
2022/08/16 02:12:48;;;;;;;10.27;7.93;;;20.80;88.60;;;21.43;91.16;99017.66;5026194;27;119371;-71
2022/08/16 02:15:18;;;;;;;11.90;7.90;;;20.80;86.80;;;21.39;91.06;99014.09;5025629;27;129623;-71
2022/08/16 02:17:47;;;;;;;10.68;7.65;;;20.70;87.00;;;21.36;91.24;99012.13;5022473;27;130049;-71
2022/08/16 02:20:17;;;;;;;11.18;7.65;;;20.70;90.20;;;21.32;91.63;99017.66;5039582;27;119618;-73
2022/08/16 02:22:46;;;;;;;9.60;7.43;;;20.70;94.30;;;21.26;91.86;99007.41;5009495;27;118231;-73
2022/08/16 02:25:18;;;;;;;12.05;8.75;;;20.60;94.20;;;21.22;92.25;99012.16;5021976;27;130497;-73
2022/08/16 02:27:47;;;;;;;12.75;8.85;;;20.60;94.30;;;21.18;92.21;99012.94;5025706;27;128695;-73
2022/08/16 02:30:24;;;;;;;12.82;8.15;;;20.60;94.20;;;21.10;92.71;99011.38;5040229;27;122203;-72
2022/08/16 02:32:53;;;;;;;11.27;7.85;;;20.70;89.40;;;21.12;92.63;99009.00;5040753;27;121827;-73
2022/08/16 02:35:26;;;;;;;10.40;7.95;;;20.70;90.40;;;21.11;92.66;99018.44;5039089;27;129909;-73
2022/08/16 02:37:56;;;;;;;9.50;7.97;;;20.60;92.80;;;21.10;92.69;99011.38;5025368;27;129402;-72
2022/08/16 02:40:28;;;;;;;10.32;8.15;;;20.60;93.20;;;21.07;92.71;99009.41;5022551;27;119661;-75
2022/08/16 02:42:57;;;;;;;10.55;8.05;;;20.60;94.20;;;21.07;92.96;99009.41;5025436;27;119163;-72
2022/08/16 02:45:28;;;;;;;13.48;8.48;;;20.60;93.00;;;21.04;93.17;99003.88;5022177;27;129706;-75
2022/08/16 02:47:58;;;;;;;9.75;8.30;;;20.50;94.20;;;21.01;93.33;99003.47;5025091;27;129308;-74
2022/08/16 02:50:30;;;;;;;8.88;7.55;;;20.50;94.20;;;20.92;93.76;98988.50;5021247;27;119675;-72
2022/08/16 02:52:58;;;;;;;10.95;7.57;;;20.50;94.20;;;20.96;93.62;98997.59;5040386;27;119927;-72
2022/08/16 02:55:29;;;;;;;11.68;8.48;;;20.50;94.30;;;20.99;93.67;98988.53;5024004;27;129456;-73
2022/08/16 02:57:58;;;;;;;16.52;7.80;;;20.40;94.20;;;20.98;93.67;98992.44;5022015;27;129321;-72
2022/08/16 03:00:26;;;;;;;11.27;7.88;;;20.40;97.20;;;20.93;93.92;98992.84;5040526;27;119658;-72
2022/08/16 03:02:56;;;;;;;10.05;8.20;;;20.30;98.60;;;20.97;93.98;98996.38;5022104;27;119294;-72
2022/08/16 03:05:25;;;;;;;10.77;8.05;;;20.30;99.90;;;20.93;94.13;99001.13;5021637;27;130417;-72
2022/08/16 03:07:55;;;;;;;13.18;8.55;;;20.30;99.90;;;20.83;95.07;98995.22;5024713;27;130104;-73
2022/08/16 03:10:24;;;;;;;11.52;8.43;;;20.20;99.90;;;20.77;95.70;98994.03;5025397;27;118294;-73
2022/08/16 03:12:54;;;;;;;12.70;8.55;;;20.10;99.90;;;20.70;96.48;98985.75;5040520;27;119848;-73
2022/08/16 03:15:24;;;;;;;12.15;8.40;;;20.10;99.90;;;20.68;96.69;98993.63;5024853;27;130760;-73
2022/08/16 03:17:53;;;;;;;15.45;7.93;;;20.10;99.90;;;20.66;96.93;98990.44;5021510;27;130043;-73
2022/08/16 03:20:22;;;;;;;8.95;7.57;;;20.00;99.90;;;20.65;96.90;98986.91;5007317;27;121293;-74
2022/08/16 03:22:51;;;;;;;14.57;8.68;;;20.00;99.90;;;20.69;96.72;98975.88;5025213;27;121122;-73
2022/08/16 03:25:20;;;;;;;12.35;8.10;;;20.10;99.90;;;20.77;95.90;98971.97;5024596;27;129475;-73
2022/08/16 03:28:00;;;;;;;12.18;8.52;;;20.10;99.90;;;20.86;95.10;98979.84;5021347;27;130137;-73
2022/08/16 03:30:32;;;;;;;13.10;8.38;;;20.20;99.90;;;20.95;94.46;98977.47;5021509;27;120202;-75
2022/08/16 03:33:05;;;;;;;10.67;8.03;;;20.20;99.90;;;21.06;93.89;98976.69;5024327;27;119107;-72
2022/08/16 03:35:41;;;;;;;13.88;8.05;;;20.30;99.90;;;21.20;92.52;98993.22;5021511;27;130362;-72
2022/08/16 03:38:23;;;;;;;9.68;8.00;;;20.40;99.90;;;21.33;91.71;98988.88;5024763;27;130138;-73
2022/08/16 03:40:55;;;;;;;10.85;7.85;;;20.50;99.50;;;21.41;90.48;98988.84;5024935;27;119289;-74
2022/08/16 03:43:29;;;;;;;12.40;8.13;;;20.60;94.20;;;21.47;89.93;98981.75;5041311;27;119665;-74
2022/08/16 03:45:59;;;;;;;12.02;7.13;;;20.50;94.20;;;21.40;90.61;98985.31;5020132;27;129956;-73
2022/08/16 03:48:34;;;;;;;10.73;7.38;;;20.50;94.20;;;21.38;90.50;98973.91;5023292;27;129411;-72
2022/08/16 03:51:09;;;;;;;9.20;7.32;;;20.50;94.30;;;21.35;90.78;98971.94;5021512;27;119571;-73
2022/08/16 03:53:44;;;;;;;13.30;8.02;;;20.60;95.40;;;21.28;90.84;98981.00;5021559;27;119521;-73
2022/08/16 03:56:13;;;;;;;13.38;7.95;;;20.60;94.20;;;21.36;90.87;98965.22;5023642;27;130500;-73
2022/08/16 03:58:43;;;;;;;9.32;7.35;;;20.60;94.20;;;21.45;89.97;98971.09;5007212;27;129605;-73
2022/08/16 04:01:12;;;;;;;14.10;8.05;;;20.70;93.20;;;21.48;89.36;98975.81;5024875;27;119951;-73
2022/08/16 04:03:41;;;;;;;18.40;8.07;;;20.70;85.60;;;21.56;89.48;98973.88;5028225;27;118946;-72
2022/08/16 04:06:09;;;;;;;9.65;7.20;;;20.70;89.50;;;21.58;88.87;98968.75;5027578;27;129531;-75
2022/08/16 04:08:38;;;;;;;10.57;6.80;;;20.70;83.70;;;21.52;89.14;98968.38;5024422;27;129986;-72
2022/08/16 04:11:08;;;;;;;11.68;7.53;;;20.70;81.50;;;21.65;88.59;98974.25;5026866;27;122242;-73
2022/08/16 04:13:36;;;;;;;9.38;7.30;;;20.80;80.90;;;21.75;87.89;98978.16;5024690;27;121756;-73
2022/08/16 04:16:08;;;;;;;11.10;7.63;;;20.90;69.70;;;21.94;86.96;98973.34;5027485;27;129674;-73
2022/08/16 04:18:37;;;;;;;9.15;7.75;;;21.10;63.80;;;22.05;86.04;98983.16;5027465;27;129041;-74
2022/08/16 04:21:06;;;;;;;10.77;7.57;;;21.10;52.70;;;22.07;85.49;98971.72;5024427;27;119844;-73
2022/08/16 04:23:37;;;;;;;10.30;7.97;;;21.20;52.00;;;22.31;84.88;98977.53;5041350;27;119621;-73
2022/08/16 04:26:07;;;;;;;11.65;7.63;;;21.30;48.50;;;22.47;83.40;98966.78;5027425;27;130050;-73
2022/08/16 04:28:39;;;;;;;10.10;6.90;;;21.50;38.60;;;22.51;83.31;98970.31;5041182;27;129395;-71
2022/08/16 04:31:12;;;;;;;14.60;8.57;;;21.50;38.60;;;22.55;82.02;98957.25;5024385;27;120047;-72
2022/08/16 04:33:43;;;;;;;13.15;9.20;;;21.50;28.60;;;22.32;83.03;98960.56;5010564;27;118434;-71
2022/08/16 04:36:12;;;;;;;20.92;9.45;;;21.50;29.50;;;22.55;81.93;98951.72;5025829;27;131901;-73
2022/08/16 04:38:41;;;;;;;12.90;7.75;;;21.60;23.70;;;22.83;81.16;98955.47;5041031;27;129595;-72
2022/08/16 04:41:10;;;;;;;13.07;7.60;;;21.80;23.00;;;22.75;80.30;98965.78;5042614;27;120292;-71
2022/08/16 04:43:38;;;;;;;13.20;8.15;;;21.90;11.70;;;22.72;80.64;98960.28;5027333;27;119070;-72
2022/08/16 04:46:09;;;;;;;12.07;7.43;;;21.80;10.90;;;23.06;79.48;98959.59;5023179;27;130497;-72
2022/08/16 04:48:43;;;;;;;12.35;6.82;;;22.00;7.50;;;23.27;78.13;98955.88;5003818;28;129562;-74
2022/08/16 04:51:13;;;;;;;16.10;7.82;;;22.10;4.50;;;23.38;78.12;98956.56;5022004;28;120236;-72
2022/08/16 04:53:47;;;;;;;9.15;6.72;;;22.20;5.40;;;23.51;76.68;98954.03;5007556;28;119701;-73
2022/08/16 04:56:18;;;;;;;9.48;6.85;;;22.30;1.00;;;23.53;76.63;98951.66;5006905;28;129847;-74
2022/08/16 04:58:48;;;;;;;10.40;6.65;;;22.30;1.00;;;23.62;76.29;98942.84;5023625;28;129095;-74
2022/08/16 05:01:19;;;;;;;10.68;6.38;;;22.40;1.00;;;23.80;75.25;98945.41;5002811;28;122214;-75
2022/08/16 05:03:49;;;;;;;8.60;6.88;;;22.50;1.00;;;23.63;75.91;98945.19;5021604;28;121784;-73
2022/08/16 05:06:18;;;;;;;9.48;6.63;;;22.40;1.00;;;23.73;75.91;98953.81;5021518;28;129443;-74
2022/08/16 05:08:48;;;;;;;11.93;7.50;;;22.50;1.00;;;23.51;75.56;98954.03;5006695;28;129110;-75
2022/08/16 05:11:23;;;;;;;;;;;22.40;1.00;;;23.46;76.34;98940.66;5020928;28;119645;-76
2022/08/16 05:13:52;;;;;;;10.10;7.18;;;22.40;1.00;;;23.64;75.63;98943.22;5021041;27;119217;-75
2022/08/16 05:16:29;;;;;;;9.40;7.05;;;22.50;1.00;;;23.92;73.98;98939.34;5019890;28;130175;-73
2022/08/16 05:19:10;;;;;;;9.38;6.60;;;22.80;1.00;;;24.13;74.01;98948.56;5003644;28;129649;-73
2022/08/16 05:21:41;;;;;;;8.43;6.35;;;22.90;1.00;;;24.04;72.94;98946.31;5003490;28;119989;-73
2022/08/16 05:24:12;;;;;;;8.05;6.03;;;22.80;1.00;;;23.90;73.56;98941.72;5006847;28;119408;-73
2022/08/16 05:26:41;;;;;;;10.63;6.95;;;22.90;1.00;;;24.04;72.92;98941.56;5018458;28;129952;-74
2022/08/16 05:29:10;;;;;;;9.77;6.53;;;22.90;1.00;;;24.26;72.58;98941.25;5006286;28;128861;-74
2022/08/16 05:31:40;;;;;;;14.63;6.65;;;23.10;1.00;;;23.92;72.84;98944.09;5003530;28;120061;-73
2022/08/16 05:34:10;;;;;;;10.95;6.68;;;22.90;1.00;;;23.66;73.80;98938.84;5006555;28;119065;-73
2022/08/16 05:36:39;;;;;;;8.68;6.90;;;22.70;1.00;;;23.63;74.76;98947.97;5019800;28;129821;-73
2022/08/16 05:39:09;;;;;;;10.02;6.43;;;22.70;1.00;;;23.54;74.80;98947.69;5022851;28;129622;-71
2022/08/16 05:41:40;;;;;;;10.25;6.88;;;22.60;1.00;;;23.89;73.74;98937.41;5003088;28;120350;-74
2022/08/16 05:44:08;;;;;;;10.75;6.78;;;22.80;1.00;;;24.25;72.63;98945.25;4990328;28;119676;-75
2022/08/16 05:46:43;;;;;;;11.57;7.07;;;23.10;1.00;;;24.50;71.56;98944.88;5002943;28;129841;-72
2022/08/16 05:49:18;;;;;;;10.93;6.38;;;23.30;1.00;;;24.43;71.24;98944.97;5023045;27;129224;-76
2022/08/16 05:51:47;;;;;;;9.80;6.28;;;23.30;1.00;;;24.44;72.08;98935.44;5008417;27;120974;-74
2022/08/16 05:54:19;;;;;;;10.40;6.47;;;23.30;1.00;;;24.83;70.70;98933.28;5026423;27;122015;-75
2022/08/16 05:56:49;;;;;;;10.15;6.35;;;23.60;1.00;;;25.00;69.27;98954.41;5040042;27;130239;-74
2022/08/16 05:59:19;;;;;;;9.00;5.95;;;23.70;1.00;;;24.99;68.32;98941.72;5025752;27;128936;-72
2022/08/16 06:01:49;;;;;;;8.43;6.13;;;23.70;1.00;;;25.19;67.31;98950.09;5022813;27;119616;-73
2022/08/16 06:04:22;;;;;;;8.60;5.93;;;23.90;1.00;;;25.12;67.99;98945.47;5009264;27;118734;-73
2022/08/16 06:06:52;;;;;;;10.40;6.47;;;23.90;1.00;;;25.20;67.88;98950.91;5009389;27;130235;-75
2022/08/16 06:09:21;;;;;;;10.73;6.63;;;24.00;1.00;;;25.12;67.34;98941.91;5023269;27;129463;-78
2022/08/16 06:11:50;;;;;;;9.73;6.10;;;23.80;1.00;;;25.29;67.32;98940.03;5023844;27;119923;-73
2022/08/16 06:14:18;;;;;;;9.93;6.43;;;23.90;1.00;;;25.23;66.17;98933.38;5020974;27;119016;-76
2022/08/16 06:16:48;;;;;;;11.38;6.63;;;23.90;1.00;;;25.19;67.71;98941.75;5040887;27;130033;-76
2022/08/16 06:19:18;;;;;;;9.77;6.60;;;23.90;1.00;;;25.29;67.33;98940.03;5022053;27;129911;-75
2022/08/16 06:21:59;;;;;;;10.77;6.60;;;23.90;1.00;;;25.08;67.86;98961.38;5022351;27;119612;-73
2022/08/16 06:24:27;;;;;;;9.18;5.97;;;23.80;1.00;;;25.01;68.20;98944.88;5042419;27;119542;-72
2022/08/16 06:26:56;;;;;;;13.77;6.15;;;23.70;1.00;;;25.10;67.74;98950.66;5007968;27;129589;-73
2022/08/16 06:29:25;;;;;;;9.48;6.55;;;23.80;1.00;;;24.91;68.23;98945.84;5036398;27;129128;-76
2022/08/16 06:31:53;;;;;;;8.90;6.35;;;23.70;1.00;;;25.22;67.55;98942.91;5018844;28;120197;-73
2022/08/16 06:34:23;;;;;;;8.48;6.45;;;23.90;1.00;;;25.33;66.45;98940.75;5036170;27;119471;-76
2022/08/16 06:36:52;;;;;;;13.15;7.05;;;23.90;1.00;;;25.50;66.64;98954.75;5007659;27;129139;-76
2022/08/16 06:39:23;;;;;;;12.75;6.53;;;24.00;1.00;;;25.49;65.77;98956.72;5037793;27;130515;-73
2022/08/16 06:42:01;;;;;;;9.63;6.70;;;24.00;1.00;;;25.38;66.60;98956.91;5037214;27;121782;-72
2022/08/16 06:44:53;;;;;;;12.70;6.38;;;24.00;1.00;;;25.80;65.87;98954.53;5054921;27;122167;-77
2022/08/16 06:47:41;;;;;;;9.15;5.88;;;24.20;1.00;;;26.03;63.71;98955.66;5044823;27;129545;-75
2022/08/16 06:50:12;;;;;;;12.93;5.90;;;24.40;1.00;;;26.13;63.50;98954.66;5037209;27;129596;-79
2022/08/16 06:52:45;;;;;;;11.90;6.13;;;24.50;1.00;;;26.05;64.00;98958.78;5024123;27;120037;-74
2022/08/16 06:55:17;;;;;;;11.20;6.18;;;24.40;1.00;;;26.50;62.91;98960.97;5024629;27;119188;-75
2022/08/16 06:57:54;;;;;;;14.38;6.35;;;24.80;1.00;;;26.49;63.00;98967.75;5007917;27;129671;-76
2022/08/16 07:00:25;;;;;;;14.05;6.55;;;24.80;1.00;;;26.38;62.65;98975.53;5038629;27;130373;-75
2022/08/16 07:03:08;;;;;;;13.27;6.57;;;24.70;1.00;;;26.44;62.38;98973.03;5025042;27;118810;-75
2022/08/16 07:05:40;;;;;;;12.32;6.70;;;24.70;1.00;;;26.60;62.31;98970.28;5021205;27;119402;-75
2022/08/16 07:08:19;;;;;;;9.80;6.22;;;24.90;1.00;;;26.54;61.61;98967.22;5023356;27;129628;-75
2022/08/16 07:10:48;;;;;;;10.48;5.70;;;24.80;1.00;;;26.63;62.29;98974.19;5021048;27;129412;-74
2022/08/16 07:13:17;;;;;;;9.40;5.82;;;24.90;1.00;;;26.36;62.61;98977.97;5021515;27;120908;-73
2022/08/16 07:15:48;;;;;;;9.73;6.10;;;24.80;1.00;;;26.62;62.32;98984.53;5024905;27;119043;-73
2022/08/16 07:18:20;;;;;;;8.18;5.55;;;25.00;1.00;;;27.55;59.97;98981.47;5024540;27;129707;-76
2022/08/16 07:20:52;;;;;;;8.35;5.78;;;25.50;1.00;;;28.37;57.72;98982.34;5023797;27;129380;-76
2022/08/16 07:23:21;;;;;;;12.13;6.13;;;26.30;1.00;;;28.38;55.85;98981.13;5021692;27;119714;-73
2022/08/16 07:25:55;;;;;;;7.97;5.63;;;26.30;1.00;;;28.62;55.75;98990.72;5024925;27;120578;-74
2022/08/16 07:28:25;;;;;;;11.13;5.53;;;26.30;1.00;;;28.77;55.32;98993.84;5021761;27;130470;-76
2022/08/16 07:30:58;;;;;;;12.02;5.30;;;26.60;1.00;;;28.42;55.05;98990.16;5024712;27;129749;-76
2022/08/16 07:33:41;;;;;;;9.10;5.85;;;26.30;1.00;;;27.85;56.63;98995.41;5020171;27;122048;-72
2022/08/16 07:36:14;;;;;;;9.38;5.50;;;26.00;1.00;;;27.64;57.28;98993.97;5024865;27;121666;-73
2022/08/16 07:38:47;;;;;;;;;;;25.90;1.00;;;27.27;59.42;98989.34;5025612;27;130752;-74
2022/08/16 07:41:16;;;;;;;11.32;5.57;;;25.90;1.00;;;27.96;59.12;98993.88;5045096;27;130041;-76
2022/08/16 07:43:49;;;;;;;9.98;5.05;;;26.40;1.00;;;27.97;56.33;98994.66;5008434;27;119355;-76
2022/08/16 07:46:20;;;;;;;7.65;5.00;;;26.40;1.00;;;28.02;56.32;99001.69;5011325;27;119027;-74
2022/08/16 07:48:49;;;;;;;8.35;5.25;;;26.30;1.00;;;28.12;55.89;99000.59;5027012;27;130126;-75
2022/08/16 07:51:19;;;;;;;14.50;5.25;;;26.50;1.00;;;27.79;56.22;98995.16;5025178;27;129963;-74
2022/08/16 07:53:50;;;;;;;9.32;5.45;;;26.40;1.00;;;27.81;56.10;98992.69;5027545;27;119474;-76
2022/08/16 07:56:20;;;;;;;10.25;5.38;;;26.30;1.00;;;28.12;56.01;98995.03;5028076;27;118263;-76
2022/08/16 07:58:49;;;;;;;8.80;5.60;;;26.50;1.00;;;28.01;56.48;98983.41;5026326;27;129871;-75
2022/08/16 08:01:18;;;;;;;9.55;5.25;;;26.40;1.00;;;27.69;57.00;98997.03;5041074;27;130073;-76
2022/08/16 08:03:52;;;;;;;9.35;5.78;;;26.30;1.00;;;27.59;58.19;98993.28;5027632;27;120210;-76
2022/08/16 08:06:31;;;;;;;9.27;5.65;;;26.10;1.00;;;27.48;57.75;98990.00;5043042;27;120261;-73
2022/08/16 08:09:05;;;;;;;10.88;5.40;;;26.00;1.00;;;27.50;58.09;98978.44;5044377;27;130130;-77
2022/08/16 08:11:34;;;;;;;12.25;5.45;;;26.00;1.00;;;27.51;58.27;98980.78;5041329;27;129692;-73
2022/08/16 08:14:05;;;;;;;8.82;5.80;;;26.00;1.00;;;27.88;58.08;98981.34;5024396;27;119668;-77
2022/08/16 08:16:39;;;;;;;13.02;6.28;;;26.20;1.00;;;28.06;57.03;98985.66;5042041;27;119315;-78
2022/08/16 08:19:11;;;;;;;9.18;5.10;;;26.30;1.00;;;28.03;57.24;98980.97;5027195;27;129524;-76
2022/08/16 08:21:43;;;;;;;11.82;6.38;;;26.30;1.00;;;28.26;56.53;98977.84;5024022;27;130302;-75
2022/08/16 08:24:13;;;;;;;9.90;6.15;;;26.40;1.00;;;28.37;56.61;98971.19;5042226;27;121662;-77
2022/08/16 08:26:43;;;;;;;9.38;6.38;;;26.50;1.00;;;28.22;56.08;98982.78;5023754;27;121615;-73
2022/08/16 08:29:12;;;;;;;8.50;5.55;;;26.30;1.00;;;28.05;56.81;98992.44;5044235;27;129852;-73
2022/08/16 08:31:41;;;;;;;10.02;5.32;;;26.30;1.00;;;27.94;57.12;98989.94;5042185;27;129606;-75
2022/08/16 08:34:11;;;;;;;9.60;5.53;;;26.30;1.00;;;27.90;57.20;98997.63;5024363;27;119783;-75
2022/08/16 08:36:42;;;;;;;8.68;5.60;;;26.20;1.00;;;28.46;55.84;98991.59;5010346;27;118267;-76
2022/08/16 08:39:22;;;;;;;8.93;5.45;;;26.50;1.00;;;28.49;54.48;98989.94;5020184;28;130265;-76
2022/08/16 08:41:52;;;;;;;7.75;4.97;;;26.70;1.00;;;28.49;54.19;99004.66;5023736;28;129346;-73
2022/08/16 08:44:22;;;;;;;10.48;4.88;;;26.60;1.00;;;28.87;54.63;98986.34;5020758;28;119600;-75
2022/08/16 08:46:56;;;;;;;9.13;4.93;;;26.90;1.00;;;29.15;53.42;98983.84;5006518;28;119786;-74
2022/08/16 08:49:25;;;;;;;8.00;4.88;;;27.00;1.00;;;29.37;50.72;98990.28;5021166;27;129764;-77
2022/08/16 08:51:55;;;;;;;11.82;5.78;;;27.10;1.00;;;29.88;49.22;99000.47;5003370;28;129592;-75
2022/08/16 08:54:24;;;;;;;11.65;5.03;;;27.50;1.00;;;29.62;48.06;98993.44;5023752;28;119807;-72
2022/08/16 08:56:55;;;;;;;9.18;4.85;;;27.20;1.00;;;29.46;48.91;98994.41;5003536;28;120157;-75
2022/08/16 08:59:40;;;;;;;8.38;4.47;;;27.10;1.00;;;29.00;49.30;98989.91;4999955;28;130659;-76
2022/08/16 09:02:10;;;;;;;8.90;5.07;;;26.80;1.00;;;29.25;48.77;98991.13;4985434;28;129506;-74
2022/08/16 09:04:47;;;;;;;12.75;5.60;;;26.80;1.00;;;28.96;49.81;98992.03;4990594;28;118653;-78
2022/08/16 09:07:20;;;;;;;10.38;5.20;;;26.50;1.00;;;28.80;49.45;98997.78;5004020;28;119690;-78
2022/08/16 09:09:50;;;;;;;10.07;5.35;;;26.40;1.00;;;28.62;50.37;99001.88;5023319;28;129651;-75
2022/08/16 09:12:18;;;;;;;8.77;4.80;;;26.30;1.00;;;28.81;50.42;98999.31;5002923;28;129285;-75
2022/08/16 09:14:53;;;;;;;10.35;5.10;;;26.40;1.00;;;28.94;49.87;98991.72;4988682;28;120843;-75
2022/08/16 09:17:24;;;;;;;10.13;5.22;;;26.50;1.00;;;29.16;49.27;98991.00;5003330;28;121747;-75
2022/08/16 09:19:55;;;;;;;9.85;5.18;;;26.60;1.00;;;29.29;49.17;98994.56;5005948;28;129420;-75
2022/08/16 09:22:28;;;;;;;8.20;4.50;;;26.80;1.00;;;29.58;48.68;98994.34;5019763;28;129594;-75
2022/08/16 09:24:57;;;;;;;9.00;4.88;;;27.00;1.00;;;29.70;48.13;98994.72;5002917;28;119536;-75
2022/08/16 09:27:28;;;;;;;9.65;5.30;;;27.20;1.00;;;29.89;47.22;98990.88;4989364;28;119253;-73
2022/08/16 09:29:58;;;;;;;9.27;4.97;;;27.40;1.00;;;29.49;47.66;98987.91;5006011;28;130220;-77
2022/08/16 09:32:26;;;;;;;9.15;5.10;;;27.10;1.00;;;29.40;47.68;98994.19;5021408;28;129989;-75
2022/08/16 09:34:55;;;;;;;8.05;4.68;;;27.20;1.00;;;29.66;48.00;98980.88;5021138;28;120508;-76
2022/08/16 09:37:25;;;;;;;13.27;7.18;;;27.30;1.00;;;30.38;46.94;98988.63;5021043;28;119287;-81
2022/08/16 09:39:54;;;;;;;7.95;4.60;;;27.90;1.00;;;30.42;45.24;98986.50;5004738;28;129757;-75
2022/08/16 09:42:22;;;;;;;8.88;4.93;;;27.90;1.00;;;30.34;46.22;98974.78;5005838;28;128930;-76
2022/08/16 09:44:51;;;;;;;7.38;5.05;;;27.70;1.00;;;30.11;46.58;98979.63;5006555;28;119500;-75
2022/08/16 09:47:21;;;;;;;8.65;4.82;;;27.60;1.00;;;29.91;46.57;98990.41;5022734;28;119461;-78
2022/08/16 09:49:50;;;;;;;9.48;4.93;;;27.40;1.00;;;29.48;47.55;98986.31;5003593;28;129353;-76
2022/08/16 09:52:19;;;;;;;9.18;4.78;;;27.30;1.00;;;29.64;47.81;98997.34;5004760;28;128139;-76
2022/08/16 09:54:49;;;;;;;7.72;5.00;;;27.50;1.00;;;29.55;47.69;98995.25;5018764;28;120153;-78
2022/08/16 09:57:18;;;;;;;9.63;5.00;;;27.40;1.00;;;29.70;47.49;98998.31;5019387;28;119487;-77
2022/08/16 09:59:46;;;;;;;9.32;4.90;;;27.60;1.00;;;29.38;47.99;98997.44;5018498;28;131379;-74
2022/08/16 10:02:15;;;;;;;8.07;4.82;;;27.40;1.00;;;29.44;48.39;98994.06;5019862;28;129786;-76
2022/08/16 10:04:43;;;;;;;13.40;5.45;;;27.50;1.00;;;29.82;47.11;98990.34;4988268;28;122164;-74
2022/08/16 10:07:12;;;;;;;7.63;4.90;;;27.70;1.00;;;29.68;47.65;98981.19;5020761;28;122914;-77
2022/08/16 10:09:41;;;;;;;8.02;5.03;;;27.70;1.00;;;29.82;47.73;98990.34;5020500;28;129884;-74
2022/08/16 10:14:56;;;;;;;8.55;4.93;;;28.30;1.00;;;30.91;45.71;98996.16;5020898;28;119599;-78
2022/08/16 10:17:25;;;;;;;10.57;5.00;;;28.70;1.00;;;31.16;44.77;98998.72;5005933;28;118714;-76
2022/08/16 10:19:55;;;;;;;8.95;4.85;;;29.00;1.00;;;31.28;43.53;98987.84;5020694;28;130361;-73
2022/08/16 10:22:23;;;;;;;9.38;5.05;;;29.00;1.00;;;31.14;44.21;98987.19;5021228;28;130127;-76
2022/08/16 10:24:52;;;;;;;11.45;5.03;;;29.10;1.00;;;31.25;44.21;98977.56;5020860;28;119567;-76
2022/08/16 10:27:22;;;;;;;7.97;4.65;;;29.10;1.00;;;31.77;43.81;98978.47;5021160;28;119184;-75
2022/08/16 10:29:51;;;;;;;6.50;4.38;;;29.40;1.00;;;32.10;42.06;98965.81;5019255;28;130068;-75
2022/08/16 10:32:20;;;;;;;7.85;5.30;;;29.50;1.00;;;32.08;42.02;98972.69;5020335;28;129139;-75